Last 30 Days

Alpine-Roundhouse Top 7880'

Daily Data | America/Los_Angeles
as of 2/18/20 7:21 AM PST
Date Daily Max Temp (°F) Daily Min Temp (°F) Wind Spd (mph) Daily Max Wind (mph) Max RH (%) Min RH (%) Wet Bulb (°F) Bat Volt Min Day (V)
2/17/20 39.9 23.7 2.1 11.7 91 22 24.4 12.9
2/16/20 41.7 28.9 4.0 27.0 86 48 30.0 12.9
2/15/20 40.9 31.1 8.3 25.8 76 35 28.6 12.9
2/14/20 43.6 29.0 6.7 23.9 67 34 28.6 12.9
2/13/20 44.3 29.7 6.5 21.7 73 27 28.6 12.9
2/12/20 40.2 29.3 3.8 17.9 65 36 27.1 13.0
2/11/20 40.7 21.0 4.8 25.1 66 36 25.3 12.9
2/10/20 34.1 20.1 8.3 30.9 65 42 22.2 12.8
2/9/20 25.5 14.8 10.2 40.5 86 57 17.0 12.5
2/8/20 41.1 16.6 5.3 30.0 76 35 26.4 12.9
2/7/20 52.1 33.2 2.2 15.0 49 19 29.8 13.0
2/6/20 44.9 29.6 3.0 12.4 92 33 31.4 13.2
2/5/20 40.9 23.3 4.6 19.6 90 35 27.8 13.0
2/4/20 26.0 9.4 7.5 36.3 64 35 12.5 12.7
2/3/20 16.1 5.5 8.7 31.3 88 47 8.7 12.8
2/2/20 38.6 9.5 5.1 28.6 91 40 21.5 13.1
2/1/20 55.8 37.9 4.1 18.6 40 10 31.9 13.2
1/31/20 57.7 34.3 1.8 15.7 82 13 35.9 13.1
1/30/20 41.5 31.4 2.4 14.6 94 70 34.2 12.8
1/29/20 38.7 20.6 2.8 14.9 91 46 26.3 12.9
1/28/20 31.6 22.8 5.9 24.8 93 55 24.8 12.9
1/27/20 33.7 25.8 3.8 27.0 99 60 28.0 12.9
1/26/20 34.5 25.6 4.4 24.1 100 96 29.8 12.9
1/25/20 46.4 30.3 4.1 21.5 97 62 34.7 12.7
1/24/20 34.5 30.0 5.3 22.9 100 67 31.2 13.1
1/23/20 46.9 32.2 3.5 25.5 96 69 35.3 12.7
1/22/20 37.4 28.2 4.6 26.0 99 94 31.7 12.6
1/21/20 30.1 25.0 5.8 26.3 98 81 26.4 12.6
1/20/20 40.1 26.6 9.3 35.5 81 34 27.9 12.7
1/19/20 48.0 31.6 2.9 19.4 45 30 29.5 12.8
Max 57.7 37.9 10.2 40.5 100 96 35.9 13.2
Avg - - 5.1 - - - 27.3 -
Min 16.1 5.5 1.8 11.7 40 10 8.7 12.5